createdAt,value
2018-11-26T00:00:36.687Z,16.17
2018-11-26T00:03:11.343Z,14.67
2018-11-26T00:05:40.527Z,16.40
2018-11-26T00:08:10.714Z,16.03
2018-11-26T00:10:50.478Z,14.83
2018-11-26T00:13:19.005Z,13.87
2018-11-26T00:15:47.529Z,15.77
2018-11-26T00:18:16.096Z,14.83
2018-11-26T00:20:44.671Z,17.33
2018-11-26T00:23:13.313Z,15.10
2018-11-26T00:25:41.849Z,16.83
2018-11-26T00:28:10.490Z,17.57
2018-11-26T00:30:39.309Z,14.90
2018-11-26T00:33:07.884Z,15.67
2018-11-26T00:35:36.426Z,16.90
2018-11-26T00:38:05.003Z,16.17
2018-11-26T00:40:33.477Z,16.40
2018-11-26T00:43:02.136Z,14.90
2018-11-26T00:45:30.679Z,15.33
2018-11-26T00:47:59.182Z,15.63
2018-11-26T00:50:27.798Z,15.27
2018-11-26T00:52:56.314Z,16.87
2018-11-26T00:55:24.956Z,15.23
2018-11-26T00:57:53.449Z,16.13
2018-11-26T01:00:22.032Z,15.50
2018-11-26T01:02:50.639Z,17.13
2018-11-26T01:05:38.546Z,16.20
2018-11-26T01:08:07.295Z,15.77
2018-11-26T01:10:35.864Z,13.80
2018-11-26T01:13:04.370Z,15.30
2018-11-26T01:15:32.965Z,15.97
2018-11-26T01:18:01.482Z,15.90
2018-11-26T01:20:30.140Z,17.40
2018-11-26T01:22:58.733Z,17.47
2018-11-26T01:25:27.373Z,16.60
2018-11-26T01:27:55.975Z,17.37
2018-11-26T01:30:24.542Z,14.73
2018-11-26T01:32:53.066Z,15.30
2018-11-26T01:35:21.880Z,16.37
2018-11-26T01:37:50.413Z,18.03
2018-11-26T01:40:21.457Z,16.03
2018-11-26T01:42:50.477Z,15.50
2018-11-26T01:45:18.947Z,14.67
2018-11-26T01:47:47.503Z,15.13
2018-11-26T01:50:16.459Z,14.33
2018-11-26T01:52:45.021Z,16.27
2018-11-26T01:55:13.524Z,16.43
2018-11-26T01:57:42.042Z,16.23
2018-11-26T02:00:27.642Z,15.53
2018-11-26T02:02:56.162Z,15.37
2018-11-26T02:05:24.812Z,16.43
2018-11-26T02:07:53.355Z,16.10
2018-11-26T02:10:21.893Z,15.03
2018-11-26T02:12:50.395Z,15.80
2018-11-26T02:15:42.727Z,14.10
2018-11-26T02:18:11.720Z,15.07
2018-11-26T02:20:40.481Z,14.90
2018-11-26T02:23:09.169Z,16.53
2018-11-26T02:25:37.846Z,16.57
2018-11-26T02:28:06.822Z,15.20
2018-11-26T02:30:35.367Z,17.70
2018-11-26T02:33:04.031Z,14.40
2018-11-26T02:35:32.645Z,15.30
2018-11-26T02:38:01.216Z,14.67
2018-11-26T02:40:32.036Z,15.33
2018-11-26T02:43:00.535Z,15.00
2018-11-26T02:45:29.633Z,13.10
2018-11-26T02:47:58.200Z,14.47
2018-11-26T02:50:26.716Z,15.20
2018-11-26T02:52:55.309Z,13.83
2018-11-26T02:55:23.904Z,13.20
2018-11-26T02:57:52.557Z,14.53
2018-11-26T03:00:21.049Z,15.20
2018-11-26T03:02:49.630Z,15.43
2018-11-26T03:05:34.900Z,13.13
2018-11-26T03:08:03.457Z,13.90
2018-11-26T03:10:32.046Z,14.03
2018-11-26T03:13:00.572Z,13.90
2018-11-26T03:15:29.056Z,12.47
2018-11-26T03:17:57.616Z,12.97
2018-11-26T03:20:26.122Z,10.93
2018-11-26T03:22:54.680Z,11.83
2018-11-26T03:25:23.328Z,14.40
2018-11-26T03:27:52.052Z,13.30
2018-11-26T03:30:21.746Z,12.70
2018-11-26T03:32:50.371Z,12.47
2018-11-26T03:35:18.917Z,12.37
2018-11-26T03:37:47.455Z,11.60
2018-11-26T03:40:16.028Z,11.80
2018-11-26T03:42:44.734Z,11.17
2018-11-26T03:45:15.380Z,11.00
2018-11-26T03:47:43.993Z,10.87
2018-11-26T03:50:13.411Z,10.80
2018-11-26T03:52:44.145Z,10.03
2018-11-26T03:55:13.113Z,12.70
2018-11-26T03:57:41.642Z,12.23
2018-11-26T04:00:11.802Z,10.90
2018-11-26T04:02:40.425Z,11.47
2018-11-26T04:05:09.794Z,11.13
2018-11-26T04:07:38.390Z,11.50
2018-11-26T04:10:08.685Z,11.10
2018-11-26T04:12:37.266Z,10.00
2018-11-26T04:15:07.722Z,10.97
2018-11-26T04:17:36.276Z,12.17
2018-11-26T04:20:05.141Z,10.73
2018-11-26T04:22:33.604Z,11.90
2018-11-26T04:25:02.240Z,11.27
2018-11-26T04:27:30.783Z,11.23
2018-11-26T04:29:59.373Z,10.30
2018-11-26T04:32:27.998Z,11.50
2018-11-26T04:34:56.568Z,11.33
2018-11-26T04:37:25.074Z,11.27
2018-11-26T04:39:53.678Z,11.73
2018-11-26T04:42:22.245Z,11.23
2018-11-26T04:44:50.857Z,13.10
2018-11-26T04:47:19.356Z,12.27
2018-11-26T04:49:47.835Z,11.60
2018-11-26T04:52:16.443Z,10.30
2018-11-26T04:54:45.028Z,12.10
2018-11-26T04:57:13.580Z,12.37
2018-11-26T04:59:42.069Z,13.17
2018-11-26T05:02:10.614Z,12.70
2018-11-26T05:04:39.459Z,12.70
2018-11-26T05:07:08.025Z,14.37
2018-11-26T05:09:36.583Z,12.40
2018-11-26T05:12:05.227Z,13.30
2018-11-26T05:14:33.766Z,13.50
2018-11-26T05:17:02.271Z,13.07
2018-11-26T05:19:30.822Z,13.80
2018-11-26T05:21:59.423Z,13.77
2018-11-26T05:24:28.024Z,13.87
2018-11-26T05:26:56.684Z,14.30
2018-11-26T05:29:25.173Z,14.63
2018-11-26T05:31:53.750Z,14.57
2018-11-26T05:34:22.257Z,14.43
2018-11-26T05:36:50.777Z,14.00
2018-11-26T05:39:19.307Z,13.20
2018-11-26T05:41:47.883Z,19.00
2018-11-26T05:44:16.458Z,14.93
2018-11-26T05:46:45.018Z,14.00
2018-11-26T05:49:13.482Z,12.53
2018-11-26T05:51:42.175Z,14.43
2018-11-26T05:54:10.805Z,16.13
2018-11-26T05:56:40.091Z,15.50
2018-11-26T05:59:08.576Z,13.97
2018-11-26T06:01:37.238Z,15.43
2018-11-26T06:04:06.223Z,16.07
2018-11-26T06:06:34.940Z,16.60
2018-11-26T06:09:04.186Z,15.90
2018-11-26T06:11:32.764Z,15.40
2018-11-26T06:14:01.346Z,13.67
2018-11-26T06:16:30.048Z,13.80
2018-11-26T06:18:58.554Z,15.50
2018-11-26T06:21:27.322Z,13.67
2018-11-26T06:23:55.873Z,17.53
2018-11-26T06:26:24.865Z,15.13
2018-11-26T06:28:53.428Z,17.07
2018-11-26T06:31:21.985Z,14.77
2018-11-26T06:33:50.568Z,14.50
2018-11-26T06:36:19.151Z,15.57
2018-11-26T06:38:47.833Z,14.90
2018-11-26T06:41:16.413Z,14.83
2018-11-26T06:43:45.016Z,15.17
2018-11-26T06:46:13.611Z,14.80
2018-11-26T06:48:42.180Z,15.00
2018-11-26T06:51:10.821Z,16.93
2018-11-26T06:53:39.438Z,14.77
2018-11-26T06:56:08.038Z,14.47
2018-11-26T06:58:36.606Z,16.00
2018-11-26T07:01:05.485Z,17.73
2018-11-26T07:03:34.019Z,15.57
2018-11-26T07:06:02.523Z,16.50
2018-11-26T07:08:31.024Z,16.20
2018-11-26T07:10:59.565Z,21.90
2018-11-26T07:13:28.215Z,21.93
2018-11-26T07:15:57.489Z,19.80
2018-11-26T07:18:26.120Z,18.40
2018-11-26T07:20:55.214Z,15.87
2018-11-26T07:23:23.796Z,21.10
2018-11-26T07:25:52.467Z,19.83
2018-11-26T07:28:21.038Z,17.03
2018-11-26T07:30:49.659Z,16.63
2018-11-26T07:33:18.315Z,14.80
2018-11-26T07:35:46.781Z,15.67
2018-11-26T07:38:15.361Z,15.97
2018-11-26T07:40:43.870Z,14.23
2018-11-26T07:43:13.324Z,15.57
2018-11-26T07:45:41.912Z,16.03
2018-11-26T07:48:11.802Z,15.00
2018-11-26T07:50:40.333Z,15.63
2018-11-26T07:53:10.094Z,16.20
2018-11-26T07:55:39.421Z,15.60
2018-11-26T07:58:07.990Z,16.07
2018-11-26T08:00:36.596Z,16.47
2018-11-26T08:03:05.321Z,19.60
2018-11-26T08:05:33.894Z,18.17
2018-11-26T08:08:02.431Z,19.10
2018-11-26T08:10:31.058Z,18.30
2018-11-26T08:12:59.766Z,19.50
2018-11-26T08:15:28.828Z,16.23
2018-11-26T08:17:57.409Z,17.27
2018-11-26T08:20:26.091Z,19.17
2018-11-26T08:22:54.657Z,15.57
2018-11-26T08:25:24.062Z,16.60
2018-11-26T08:27:53.108Z,15.47
2018-11-26T08:30:24.903Z,14.83
2018-11-26T08:32:56.035Z,17.40
2018-11-26T08:35:24.637Z,16.43
2018-11-26T08:37:58.386Z,16.40
2018-11-26T08:40:28.760Z,16.20
2018-11-26T08:43:15.412Z,14.90
2018-11-26T08:45:56.966Z,14.10
2018-11-26T08:48:27.876Z,15.10
2018-11-26T08:50:57.657Z,14.50
2018-11-26T08:53:26.312Z,15.57
2018-11-26T08:55:55.026Z,14.90
2018-11-26T08:58:23.573Z,16.20
2018-11-26T09:00:57.456Z,14.83
2018-11-26T09:04:02.436Z,15.50
2018-11-26T09:06:31.078Z,16.60
2018-11-26T09:08:59.727Z,16.40
2018-11-26T09:11:28.414Z,16.70
2018-11-26T09:13:57.022Z,17.07
2018-11-26T09:16:25.595Z,16.60
2018-11-26T09:18:54.302Z,14.90
2018-11-26T09:21:22.853Z,16.00
2018-11-26T09:23:51.338Z,17.47
2018-11-26T09:26:19.898Z,15.63
2018-11-26T09:28:49.259Z,16.63
2018-11-26T09:31:17.783Z,14.63
2018-11-26T09:33:46.451Z,16.10
2018-11-26T09:36:15.068Z,14.93
2018-11-26T09:38:43.649Z,15.80
2018-11-26T09:41:12.237Z,15.40
2018-11-26T09:43:41.122Z,16.70
2018-11-26T09:46:09.719Z,16.10
2018-11-26T09:48:38.338Z,14.53
2018-11-26T09:51:13.888Z,16.17
2018-11-26T09:53:35.533Z,19.57
2018-11-26T09:56:04.686Z,16.70
2018-11-26T09:58:32.854Z,16.53
2018-11-26T10:01:01.403Z,16.80
2018-11-26T10:03:30.122Z,19.40
2018-11-26T10:05:58.699Z,18.30
2018-11-26T10:08:27.317Z,18.03
2018-11-26T10:10:55.842Z,18.00
2018-11-26T10:13:24.390Z,16.60
2018-11-26T10:15:52.989Z,18.27
2018-11-26T10:18:22.118Z,18.57
2018-11-26T10:20:50.722Z,18.83
2018-11-26T10:23:19.220Z,19.57
2018-11-26T10:25:47.967Z,19.47
2018-11-26T10:28:16.526Z,17.30
2018-11-26T10:30:45.081Z,18.90
2018-11-26T10:33:14.959Z,17.50
2018-11-26T10:35:42.248Z,18.00
2018-11-26T10:38:10.802Z,19.27
2018-11-26T10:40:39.352Z,20.40
2018-11-26T10:43:11.675Z,18.67
2018-11-26T10:45:36.932Z,18.57
2018-11-26T10:48:06.353Z,18.13
2018-11-26T10:50:35.076Z,19.07
2018-11-26T10:53:03.660Z,19.23
2018-11-26T10:55:34.265Z,19.70
2018-11-26T10:58:02.951Z,19.47
2018-11-26T11:00:36.758Z,19.03
2018-11-26T11:03:05.615Z,22.70
2018-11-26T11:05:34.453Z,20.80
2018-11-26T11:08:03.011Z,21.27
2018-11-26T11:10:32.723Z,20.07
2018-11-26T11:13:01.332Z,19.83
2018-11-26T11:15:30.734Z,21.30
2018-11-26T11:17:59.758Z,18.60
2018-11-26T11:20:29.204Z,20.23
2018-11-26T11:22:57.835Z,18.77
2018-11-26T11:25:26.530Z,20.80
2018-11-26T11:27:56.381Z,21.70
2018-11-26T11:30:27.476Z,22.83
2018-11-26T11:32:56.031Z,20.20
2018-11-26T11:35:24.689Z,22.73
2018-11-26T11:37:53.912Z,19.03
2018-11-26T11:40:23.615Z,21.33
2018-11-26T11:42:52.405Z,23.03
2018-11-26T11:45:21.290Z,20.30
2018-11-26T11:47:49.877Z,22.07
2018-11-26T11:50:20.073Z,19.33
2018-11-26T11:52:48.835Z,20.10
2018-11-26T11:55:19.254Z,22.37
2018-11-26T11:57:47.919Z,22.07
2018-11-26T12:00:30.180Z,21.63
2018-11-26T12:02:59.261Z,19.80
2018-11-26T12:05:27.892Z,20.37
2018-11-26T12:07:56.462Z,20.63
2018-11-26T12:10:24.970Z,17.87
2018-11-26T12:12:53.528Z,18.97
2018-11-26T12:15:22.036Z,21.73
2018-11-26T12:17:50.667Z,21.87
2018-11-26T12:20:19.228Z,21.17
2018-11-26T12:22:47.871Z,19.73
2018-11-26T12:25:20.423Z,20.17
2018-11-26T12:27:48.960Z,20.67
2018-11-26T12:30:21.571Z,23.07
2018-11-26T12:32:50.272Z,20.50
2018-11-26T12:35:19.891Z,21.43
2018-11-26T12:37:48.570Z,21.37
2018-11-26T12:40:23.156Z,23.70
2018-11-26T12:42:53.010Z,21.73
2018-11-26T12:45:24.023Z,20.90
2018-11-26T12:47:56.925Z,22.90
2018-11-26T12:50:25.662Z,24.77
2018-11-26T12:52:54.520Z,22.97
2018-11-26T12:55:23.889Z,22.13
2018-11-26T12:57:53.172Z,21.77
2018-11-26T13:00:27.870Z,19.70
2018-11-26T13:03:04.882Z,21.03
2018-11-26T13:05:33.438Z,22.20
2018-11-26T13:08:02.036Z,20.80
2018-11-26T13:10:30.591Z,22.53
2018-11-26T13:12:59.233Z,24.30
2018-11-26T13:15:28.930Z,23.90
2018-11-26T13:17:57.683Z,26.80
2018-11-26T13:20:28.639Z,23.60
2018-11-26T13:22:57.697Z,20.10
2018-11-26T13:25:30.562Z,21.33
2018-11-26T13:28:01.918Z,19.10
2018-11-26T13:30:39.111Z,24.57
2018-11-26T13:33:11.966Z,21.53
2018-11-26T13:35:41.259Z,22.77
2018-11-26T13:38:11.203Z,21.43
2018-11-26T13:40:42.573Z,19.03
2018-11-26T13:43:13.295Z,21.40
2018-11-26T13:45:44.732Z,21.50
2018-11-26T13:48:15.365Z,23.83
2018-11-26T13:50:48.763Z,21.60
2018-11-26T13:53:18.042Z,21.53
2018-11-26T13:55:47.318Z,22.30
2018-11-26T13:58:16.129Z,25.60
2018-11-26T14:00:44.995Z,23.30
2018-11-26T14:03:13.631Z,22.37
2018-11-26T14:05:42.482Z,21.93
2018-11-26T14:08:13.366Z,24.40
2018-11-26T14:10:42.636Z,20.50
2018-11-26T14:13:13.703Z,19.57
2018-11-26T14:15:42.473Z,22.23
2018-11-26T14:18:11.283Z,21.93
2018-11-26T14:20:40.021Z,20.70
2018-11-26T14:23:10.011Z,20.47
2018-11-26T14:25:38.997Z,18.63
2018-11-26T14:28:08.394Z,20.67
2018-11-26T14:30:39.052Z,22.63
2018-11-26T14:33:08.128Z,18.93
2018-11-26T14:35:37.051Z,21.03
2018-11-26T14:38:09.794Z,22.90
2018-11-26T14:40:42.260Z,21.03
2018-11-26T14:43:11.454Z,20.50
2018-11-26T14:45:40.311Z,18.57
2018-11-26T14:48:09.004Z,18.20
2018-11-26T14:50:37.938Z,19.23
2018-11-26T14:53:08.993Z,16.40
2018-11-26T14:55:38.699Z,15.60
2018-11-26T14:58:08.388Z,15.97
2018-11-26T15:00:37.187Z,15.50
2018-11-26T15:03:06.474Z,15.33
2018-11-26T15:05:35.194Z,15.00
2018-11-26T15:08:03.926Z,17.83
2018-11-26T15:10:32.579Z,18.97
2018-11-26T15:13:01.304Z,16.80
2018-11-26T15:15:29.902Z,18.10
2018-11-26T15:17:58.519Z,16.17
2018-11-26T15:20:28.465Z,16.20
2018-11-26T15:22:58.031Z,16.73
2018-11-26T15:25:30.695Z,17.83
2018-11-26T15:28:07.473Z,15.80
2018-11-26T15:30:36.082Z,17.27
2018-11-26T15:33:05.148Z,19.53
2018-11-26T15:35:33.827Z,15.53
2018-11-26T15:38:02.632Z,20.40
2018-11-26T15:40:31.252Z,16.77
2018-11-26T15:42:59.982Z,18.87
2018-11-26T15:45:29.806Z,17.27
2018-11-26T15:48:00.390Z,17.77
2018-11-26T15:50:31.900Z,16.50
2018-11-26T15:53:00.900Z,18.87
2018-11-26T15:55:29.539Z,22.57
2018-11-26T15:57:58.155Z,18.10
2018-11-26T16:00:27.153Z,19.50
2018-11-26T16:02:55.724Z,20.60
2018-11-26T16:05:26.298Z,19.63
2018-11-26T16:07:56.599Z,19.67
2018-11-26T16:10:25.214Z,19.90
2018-11-26T16:12:55.547Z,17.70
2018-11-26T16:15:25.678Z,16.30
2018-11-26T16:17:55.702Z,17.60
2018-11-26T16:20:25.629Z,16.57
2018-11-26T16:22:54.393Z,17.50
2018-11-26T16:25:24.070Z,17.90
2018-11-26T16:27:52.644Z,16.13
2018-11-26T16:30:21.283Z,17.90
2018-11-26T16:32:53.063Z,21.50
2018-11-26T16:35:31.634Z,17.10
2018-11-26T16:38:00.363Z,21.60
2018-11-26T16:40:28.973Z,17.23
2018-11-26T16:42:57.500Z,21.53
2018-11-26T16:45:27.378Z,16.87
2018-11-26T16:47:57.758Z,19.67
2018-11-26T16:50:28.648Z,16.93
2018-11-26T16:52:57.236Z,18.47
2018-11-26T16:55:25.950Z,19.20
2018-11-26T16:57:54.903Z,16.90
2018-11-26T17:00:24.766Z,17.40
2018-11-26T17:02:54.685Z,20.60
2018-11-26T17:05:40.902Z,19.53
2018-11-26T17:08:12.864Z,17.70
2018-11-26T17:10:41.720Z,15.60
2018-11-26T17:13:12.207Z,16.70
2018-11-26T17:15:41.394Z,16.10
2018-11-26T17:18:10.634Z,17.83
2018-11-26T17:20:39.459Z,20.27
2018-11-26T17:23:08.286Z,15.80
2018-11-26T17:25:36.960Z,18.10
2018-11-26T17:28:05.644Z,18.87
2018-11-26T17:30:34.302Z,19.70
2018-11-26T17:33:04.806Z,22.27
2018-11-26T17:35:34.291Z,22.50
2018-11-26T17:38:03.247Z,21.40
2018-11-26T17:40:34.652Z,21.97
2018-11-26T17:43:05.715Z,19.50
2018-11-26T17:45:35.625Z,18.53
2018-11-26T17:48:04.931Z,17.13
2018-11-26T17:50:44.524Z,20.00
2018-11-26T17:53:19.523Z,19.80
2018-11-26T17:55:53.297Z,20.63
2018-11-26T17:58:25.618Z,20.93
2018-11-26T18:01:35.523Z,16.97
2018-11-26T18:04:04.355Z,17.33
2018-11-26T18:06:33.953Z,20.10
2018-11-26T18:09:03.558Z,21.07
2018-11-26T18:11:32.209Z,22.27
2018-11-26T18:14:02.873Z,21.20
2018-11-26T18:16:37.386Z,22.33
2018-11-26T18:19:11.234Z,21.47
2018-11-26T18:21:47.623Z,21.73
2018-11-26T18:24:16.676Z,22.53
2018-11-26T18:26:46.313Z,21.67
2018-11-26T18:29:22.401Z,19.40
2018-11-26T18:31:54.551Z,19.23
2018-11-26T18:34:30.233Z,19.50
2018-11-26T18:37:09.181Z,19.60
2018-11-26T18:39:42.539Z,19.60
2018-11-26T18:42:42.291Z,18.53
2018-11-26T18:45:19.589Z,19.80
2018-11-26T18:47:52.233Z,21.10
2018-11-26T18:50:22.637Z,21.97
2018-11-26T18:52:52.300Z,21.90
2018-11-26T18:55:21.422Z,25.00
2018-11-26T18:57:50.571Z,23.20
2018-11-26T19:00:22.076Z,24.47
2018-11-26T19:02:55.166Z,22.57
2018-11-26T19:05:24.798Z,25.33
2018-11-26T19:07:55.118Z,24.97
2018-11-26T19:10:33.808Z,25.77
2018-11-26T19:13:16.752Z,24.63
2018-11-26T19:15:49.759Z,23.43
2018-11-26T19:18:26.202Z,28.37
2018-11-26T19:20:57.562Z,28.77
2018-11-26T19:23:37.353Z,32.23
2018-11-26T19:26:17.964Z,29.80
2018-11-26T19:28:49.061Z,26.63
2018-11-26T19:31:19.583Z,23.07
2018-11-26T19:33:49.397Z,33.90
2018-11-26T19:36:20.411Z,25.80
2018-11-26T19:38:51.045Z,25.57
2018-11-26T19:41:22.120Z,26.00
2018-11-26T19:43:51.391Z,26.93
2018-11-26T19:46:20.384Z,26.53
2018-11-26T19:48:51.166Z,27.97
2018-11-26T19:51:22.669Z,25.80
2018-11-26T19:53:53.014Z,21.83
2018-11-26T19:56:52.372Z,23.57
2018-11-26T19:59:22.647Z,21.50
2018-11-26T20:01:52.438Z,21.53
2018-11-26T20:04:32.178Z,21.47
2018-11-26T20:07:02.544Z,20.83
2018-11-26T20:09:34.132Z,23.80
2018-11-26T20:12:05.195Z,23.87
2018-11-26T20:14:36.030Z,24.93
2018-11-26T20:17:05.888Z,26.33
2018-11-26T20:19:35.287Z,23.67
2018-11-26T20:22:04.544Z,20.90
2018-11-26T20:24:34.141Z,25.30
2018-11-26T20:27:04.064Z,23.57
2018-11-26T20:29:34.589Z,22.30
2018-11-26T20:32:03.388Z,20.77
2018-11-26T20:34:32.195Z,23.03
2018-11-26T20:37:01.290Z,24.27
2018-11-26T20:39:30.844Z,22.70
2018-11-26T20:42:03.830Z,22.37
2018-11-26T20:44:32.559Z,23.87
2018-11-26T20:47:04.702Z,23.47
2018-11-26T20:49:34.717Z,22.33
2018-11-26T20:52:04.904Z,24.87
2018-11-26T20:54:33.562Z,22.90
2018-11-26T20:57:02.250Z,21.83
2018-11-26T20:59:30.953Z,23.27
2018-11-26T21:01:59.523Z,23.63
2018-11-26T21:04:28.136Z,25.63
2018-11-26T21:06:57.487Z,25.53
2018-11-26T21:09:26.131Z,25.97
2018-11-26T21:11:54.808Z,22.03
2018-11-26T21:14:23.382Z,23.97
2018-11-26T21:16:51.995Z,21.50
2018-11-26T21:19:20.571Z,22.30
2018-11-26T21:21:49.117Z,23.10
2018-11-26T21:24:17.678Z,22.63
2018-11-26T21:26:46.255Z,22.20
2018-11-26T21:29:15.029Z,21.77
2018-11-26T21:31:43.472Z,20.80
2018-11-26T21:34:12.257Z,28.20
2018-11-26T21:36:40.946Z,25.20
2018-11-26T21:39:10.521Z,24.37
2018-11-26T21:41:39.218Z,22.60
2018-11-26T21:44:07.843Z,25.07
2018-11-26T21:46:36.415Z,24.77
2018-11-26T21:49:05.107Z,20.47
2018-11-26T21:51:33.664Z,18.93
2018-11-26T21:54:02.301Z,22.80
2018-11-26T21:56:30.855Z,20.80
2018-11-26T21:58:59.434Z,22.20
2018-11-26T22:01:27.986Z,21.10
2018-11-26T22:03:56.572Z,22.30
2018-11-26T22:06:25.217Z,20.90
2018-11-26T22:08:53.780Z,20.57
2018-11-26T22:11:22.369Z,21.93
2018-11-26T22:13:50.864Z,23.77
2018-11-26T22:16:19.359Z,23.90
2018-11-26T22:18:47.953Z,23.90
2018-11-26T22:21:16.590Z,24.50
2018-11-26T22:23:45.175Z,23.20
2018-11-26T22:26:13.708Z,21.87
2018-11-26T22:28:42.299Z,20.33
2018-11-26T22:31:11.041Z,23.13
2018-11-26T22:33:39.636Z,26.67
2018-11-26T22:36:08.372Z,21.07
2018-11-26T22:38:36.916Z,20.80
2018-11-26T22:41:06.330Z,22.63
2018-11-26T22:43:34.844Z,18.90
2018-11-26T22:46:03.441Z,22.27
2018-11-26T22:48:32.079Z,18.87
2018-11-26T22:51:00.665Z,18.80
2018-11-26T22:53:29.208Z,22.00
2018-11-26T22:55:57.770Z,18.40
2018-11-26T22:58:26.401Z,23.53
2018-11-26T23:00:55.223Z,18.13
2018-11-26T23:03:25.137Z,17.87
2018-11-26T23:05:53.744Z,19.33
2018-11-26T23:08:22.335Z,19.20
2018-11-26T23:10:50.944Z,17.83
2018-11-26T23:13:19.547Z,21.00
2018-11-26T23:15:48.228Z,17.73
2018-11-26T23:18:16.787Z,15.90
2018-11-26T23:20:45.390Z,17.67
2018-11-26T23:23:14.053Z,24.10
2018-11-26T23:25:42.750Z,19.47
2018-11-26T23:28:11.419Z,22.57
2018-11-26T23:30:39.924Z,18.63
2018-11-26T23:33:08.945Z,23.10
2018-11-26T23:35:37.497Z,20.90
2018-11-26T23:38:06.286Z,23.90
2018-11-26T23:40:35.861Z,20.73
2018-11-26T23:43:04.469Z,21.17
2018-11-26T23:45:33.040Z,19.97
2018-11-26T23:48:01.596Z,19.17
2018-11-26T23:50:30.206Z,17.83
2018-11-26T23:52:58.760Z,21.30
2018-11-26T23:55:27.334Z,18.10
2018-11-26T23:57:55.883Z,18.33
